Time;durP1;ratioP1;P1;durP2;ratioP2;P2;SDS_P1;SDS_P2;PMS_P1;PMS_P2;Temp;Humidity;BMP_temperature;BMP_pressure;BME280_temperature;BME280_humidity;BME280_pressure;Samples;Min_cycle;Max_cycle;Signal;HPM_P1;HPM_P2
2024/02/13 00:00:11;;;;;;;;;;;;;;;11.97;68.54;98553.03;4994285;28;19914;-86
2024/02/13 00:02:37;;;;;;;;;;;;;;;11.97;68.50;98545.09;4977372;28;19921;-86
2024/02/13 00:05:07;;;;;;;;;;;;;;;12.00;68.91;98543.88;4977203;28;20413;-87
2024/02/13 00:07:32;;;;;;;;;;;;;;;12.00;68.49;98555.25;4994754;28;20048;-86
2024/02/13 00:09:57;;;;;;;;;;;;;;;12.01;68.35;98553.44;4976803;28;20016;-87
2024/02/13 00:12:23;;;;;;;;;;;;;;;12.00;68.35;98547.31;4977026;28;20344;-86
2024/02/13 00:14:48;;;;;;;;;;;;;;;12.00;68.63;98552.63;4994392;28;19928;-86
2024/02/13 00:17:17;;;;;;;;;;;;;;;11.99;68.53;98545.72;4994400;28;19921;-86
2024/02/13 00:19:42;;;;;;;;;;;;;;;11.98;68.67;98543.28;4977011;28;19920;-86
2024/02/13 00:22:10;;;;;;;;;;;;;;;11.92;68.89;98547.56;4976894;28;19914;-86
2024/02/13 00:24:36;;;;;;;;;;;;;;;11.87;69.29;98539.44;4976906;28;19921;-86
2024/02/13 00:27:02;;;;;;;;;;;;;;;11.83;69.31;98540.06;4976795;28;19914;-86
2024/02/13 00:29:28;;;;;;;;;;;;;;;11.81;69.08;98534.97;4994217;28;19964;-87
2024/02/13 00:31:53;;;;;;;;;;;;;;;11.82;69.15;98541.09;4994106;28;20350;-87
2024/02/13 00:34:21;;;;;;;;;;;;;;;11.82;68.81;98549.81;4994090;28;19921;-87
2024/02/13 00:36:48;;;;;;;;;;;;;;;11.84;68.76;98552.25;4994168;28;19913;-87
2024/02/13 00:39:14;;;;;;;;;;;;;;;11.87;68.88;98541.25;4976541;28;20008;-86
2024/02/13 00:41:41;;;;;;;;;;;;;;;11.86;69.09;98537.81;4993857;28;20425;-86
2024/02/13 00:44:06;;;;;;;;;;;;;;;11.85;69.21;98543.31;4976403;28;19953;-86
2024/02/13 00:46:31;;;;;;;;;;;;;;;11.86;68.19;98532.50;4993824;28;19971;-86
2024/02/13 00:48:56;;;;;;;;;;;;;;;11.84;69.64;98539.84;4976350;28;19917;-87
2024/02/13 00:51:22;;;;;;;;;;;;;;;11.87;68.22;98533.31;4976361;28;19972;-86
2024/02/13 00:53:48;;;;;;;;;;;;;;;11.83;69.26;98538.22;4993697;28;19957;-87
2024/02/13 00:56:13;;;;;;;;;;;;;;;11.81;68.69;98540.28;4993761;28;19921;-86
2024/02/13 00:58:38;;;;;;;;;;;;;;;11.79;69.20;98537.03;4976237;28;19914;-87
2024/02/13 01:01:04;;;;;;;;;;;;;;;11.78;69.16;98538.03;4993529;28;20300;-87
2024/02/13 01:03:29;;;;;;;;;;;;;;;11.80;68.99;98533.34;4976179;28;20012;-86
2024/02/13 01:05:54;;;;;;;;;;;;;;;11.81;69.22;98542.91;4976158;28;19914;-86
2024/02/13 01:08:23;;;;;;;;;;;;;;;11.81;67.92;98537.63;4993430;28;19964;-87
2024/02/13 01:10:49;;;;;;;;;;;;;;;11.78;69.15;98528.28;4992665;28;19913;-86
2024/02/13 01:13:15;;;;;;;;;;;;;;;11.77;69.78;98539.03;4975955;28;19914;-86
2024/02/13 01:15:41;;;;;;;;;;;;;;;11.76;69.31;98540.06;4975724;28;19924;-86
2024/02/13 01:18:06;;;;;;;;;;;;;;;11.73;69.42;98541.28;4975829;28;19917;-85
2024/02/13 01:20:31;;;;;;;;;;;;;;;11.70;69.60;98539.06;4993400;28;20310;-86
2024/02/13 01:22:57;;;;;;;;;;;;;;;11.66;69.20;98545.78;4993337;28;19949;-86
2024/02/13 01:25:22;;;;;;;;;;;;;;;11.68;69.53;98548.22;4993329;28;20393;-86
2024/02/13 01:27:47;;;;;;;;;;;;;;;11.69;68.95;98555.94;4975525;28;19918;-87
2024/02/13 01:30:13;;;;;;;;;;;;;;;11.72;69.06;98555.53;4975889;28;19914;-86
2024/02/13 01:32:40;;;;;;;;;;;;;;;11.70;69.62;98546.19;4993161;28;20417;-87
2024/02/13 01:35:05;;;;;;;;;;;;;;;11.68;69.73;98551.69;4992957;28;19972;-87
2024/02/13 01:37:31;;;;;;;;;;;;;;;11.72;68.77;98557.38;4993119;28;19949;-86
2024/02/13 01:39:56;;;;;;;;;;;;;;;11.73;69.24;98557.16;4992954;28;19921;-86
2024/02/13 01:42:22;;;;;;;;;;;;;;;11.73;69.17;98553.69;4992952;28;20029;-86
2024/02/13 01:44:47;;;;;;;;;;;;;;;11.76;68.33;98555.94;4992845;28;19961;-87
2024/02/13 01:47:12;;;;;;;;;;;;;;;11.73;68.99;98557.16;4992767;28;19914;-86
2024/02/13 01:49:38;;;;;;;;;;;;;;;11.67;69.97;98559.81;4975055;28;19972;-86
2024/02/13 01:52:05;;;;;;;;;;;;;;;11.62;69.28;98565.75;4975156;28;19910;-87
2024/02/13 01:54:30;;;;;;;;;;;;;;;11.61;69.79;98563.31;4992443;28;19921;-87
2024/02/13 01:56:56;;;;;;;;;;;;;;;11.63;69.00;98558.63;4992533;28;20427;-87
2024/02/13 01:59:22;;;;;;;;;;;;;;;11.66;69.21;98571.41;4992735;28;19914;-87
2024/02/13 02:01:47;;;;;;;;;;;;;;;11.66;69.53;98566.94;4992729;28;19958;-87
2024/02/13 02:04:14;;;;;;;;;;;;;;;11.67;69.69;98563.28;4974917;28;20004;-86
2024/02/13 02:06:41;;;;;;;;;;;;;;;11.64;69.77;98576.91;4992280;28;20415;-86
2024/02/13 02:09:07;;;;;;;;;;;;;;;11.62;69.46;98571.03;4974948;28;19922;-86
2024/02/13 02:11:33;;;;;;;;;;;;;;;11.60;69.13;98573.06;4992568;28;19914;-87
2024/02/13 02:14:00;;;;;;;;;;;;;;;11.62;69.52;98573.66;4992704;28;19918;-87
2024/02/13 02:16:27;;;;;;;;;;;;;;;11.63;69.83;98570.00;4992652;28;19921;-87
2024/02/13 02:18:53;;;;;;;;;;;;;;;11.68;69.07;98572.03;4975100;28;19981;-86
2024/02/13 02:21:18;;;;;;;;;;;;;;;11.67;68.92;98571.22;4975021;28;20016;-87
2024/02/13 02:23:44;;;;;;;;;;;;;;;11.66;69.17;98571.41;4992152;28;20012;-87
2024/02/13 02:26:10;;;;;;;;;;;;;;;11.61;69.59;98556.19;4992371;28;20379;-86
2024/02/13 02:28:35;;;;;;;;;;;;;;;11.61;69.79;98566.75;4974900;28;20367;-86
2024/02/13 02:31:01;;;;;;;;;;;;;;;11.59;69.20;98562.69;4974815;28;20005;-86
2024/02/13 02:33:26;;;;;;;;;;;;;;;11.49;69.28;98572.91;4974662;28;19921;-86
2024/02/13 02:35:53;;;;;;;;;;;;;;;11.40;70.21;98580.25;4974619;28;19949;-87
2024/02/13 02:38:19;;;;;;;;;;;;;;;11.36;70.25;98579.03;4974784;28;19914;-86
2024/02/13 02:40:44;;;;;;;;;;;;;;;11.32;70.47;98581.28;4974727;28;20505;-87
2024/02/13 02:43:09;;;;;;;;;;;;;;;11.29;70.68;98579.03;4975188;28;20051;-86
2024/02/13 02:45:35;;;;;;;;;;;;;;;11.32;69.74;98572.53;4992192;28;19994;-86
2024/02/13 02:48:00;;;;;;;;;;;;;;;11.34;69.19;98581.06;4974558;28;20383;-86
2024/02/13 02:50:25;;;;;;;;;;;;;;;11.29;69.93;98581.69;4992160;28;19918;-87
2024/02/13 02:52:54;;;;;;;;;;;;;;;11.31;69.18;98584.94;4992113;28;19920;-86
2024/02/13 02:55:21;;;;;;;;;;;;;;;11.31;69.83;98592.03;4974569;28;20465;-86
2024/02/13 02:57:46;;;;;;;;;;;;;;;11.29;69.54;98591.44;4974612;28;19922;-87
2024/02/13 03:00:14;;;;;;;;;;;;;;;11.30;70.41;98593.06;4974426;28;19914;-87
2024/02/13 03:02:40;;;;;;;;;;;;;;;11.30;70.52;98591.22;4991965;28;19957;-86
2024/02/13 03:05:06;;;;;;;;;;;;;;;11.33;70.64;98596.09;4974580;28;19972;-86
2024/02/13 03:07:32;;;;;;;;;;;;;;;11.35;69.62;98596.72;4974437;28;20402;-86
2024/02/13 03:09:58;;;;;;;;;;;;;;;11.40;69.86;98596.09;4991910;28;20419;-86
2024/02/13 03:12:24;;;;;;;;;;;;;;;11.44;70.07;98599.94;4974496;28;19921;-87
2024/02/13 03:14:50;;;;;;;;;;;;;;;11.48;69.56;98622.31;4974706;28;20402;-86
2024/02/13 03:17:21;;;;;;;;;;;;;;;11.50;69.92;98612.34;4974488;28;19913;-86
2024/02/13 03:19:46;;;;;;;;;;;;;;;11.43;69.98;98600.97;4974358;28;19921;-87
2024/02/13 03:22:11;;;;;;;;;;;;;;;11.39;70.05;98605.84;4992176;28;19914;-86
2024/02/13 03:24:37;;;;;;;;;;;;;;;11.39;69.78;98607.69;4974245;28;19920;-86
2024/02/13 03:27:02;;;;;;;;;;;;;;;11.37;69.47;98599.97;4991776;28;19914;-86
2024/02/13 03:29:27;;;;;;;;;;;;;;;11.34;70.06;98607.50;4974392;28;20314;-86
2024/02/13 03:31:54;;;;;;;;;;;;;;;11.30;69.90;98607.09;4991852;28;19914;-86
2024/02/13 03:34:19;;;;;;;;;;;;;;;11.32;69.91;98615.63;4975210;28;20158;-87
2024/02/13 03:36:44;;;;;;;;;;;;;;;11.36;69.92;98622.13;4977778;28;19964;-87
2024/02/13 03:39:10;;;;;;;;;;;;;;;11.36;70.22;98624.78;4995527;28;19918;-87
2024/02/13 03:41:46;;;;;;;;;;;;;;;11.39;70.41;98628.81;4995204;28;19920;-87
2024/02/13 03:44:11;;;;;;;;;;;;;;;11.39;70.07;98629.66;4977560;28;20334;-87
2024/02/13 03:46:37;;;;;;;;;;;;;;;11.35;69.78;98631.06;4977458;28;19910;-87
2024/02/13 03:49:02;;;;;;;;;;;;;;;11.34;69.94;98626.00;4995138;28;19914;-87
2024/02/13 03:51:28;;;;;;;;;;;;;;;11.27;69.19;98626.00;4994777;28;19914;-86
2024/02/13 03:53:53;;;;;;;;;;;;;;;11.19;70.85;98625.41;4995097;28;19977;-87
2024/02/13 03:56:18;;;;;;;;;;;;;;;11.13;70.70;98627.00;4977350;28;19914;-86
2024/02/13 03:58:43;;;;;;;;;;;;;;;11.13;71.01;98617.25;4994773;28;19952;-87
2024/02/13 04:01:09;;;;;;;;;;;;;;;11.13;70.86;98619.06;4994903;28;19917;-86
2024/02/13 04:03:36;;;;;;;;;;;;;;;11.17;70.08;98617.66;4994633;28;19949;-87
2024/02/13 04:06:02;;;;;;;;;;;;;;;11.19;70.86;98620.91;4977144;28;19972;-87
2024/02/13 04:08:28;;;;;;;;;;;;;;;11.22;70.28;98620.50;4994633;28;19914;-87
2024/02/13 04:10:53;;;;;;;;;;;;;;;11.15;72.05;98625.00;4994316;28;19917;-87
2024/02/13 04:13:19;;;;;;;;;;;;;;;11.12;71.02;98626.19;4977303;28;19914;-86
2024/02/13 04:15:44;;;;;;;;;;;;;;;11.13;71.32;98624.34;4977109;28;20383;-87
2024/02/13 04:18:09;;;;;;;;;;;;;;;11.16;70.79;98621.34;4994802;28;20426;-87
2024/02/13 04:20:37;;;;;;;;;;;;;;;11.17;70.82;98616.88;4994375;28;19914;-87
2024/02/13 04:23:03;;;;;;;;;;;;;;;11.19;69.90;98622.75;4994301;28;19929;-86
2024/02/13 04:25:28;;;;;;;;;;;;;;;11.20;70.14;98622.53;4994391;28;19918;-86
2024/02/13 04:27:54;;;;;;;;;;;;;;;11.18;70.62;98621.94;4976902;28;19914;-87
2024/02/13 04:30:19;;;;;;;;;;;;;;;11.20;70.70;98630.47;4976780;28;19984;-87
2024/02/13 04:32:45;;;;;;;;;;;;;;;11.22;70.70;98630.28;4994425;28;20292;-87
2024/02/13 04:35:10;;;;;;;;;;;;;;;11.20;70.44;98627.03;4993944;28;19918;-87
2024/02/13 04:37:35;;;;;;;;;;;;;;;11.14;69.47;98626.78;4994119;28;19921;-87
2024/02/13 04:40:01;;;;;;;;;;;;;;;11.05;70.72;98628.00;4976559;28;19945;-87
2024/02/13 04:42:33;;;;;;;;;;;;;;;11.06;70.43;98627.00;4994016;28;19972;-87
2024/02/13 04:44:59;;;;;;;;;;;;;;;11.11;69.41;98629.84;4993972;28;19963;-87
2024/02/13 04:47:27;;;;;;;;;;;;;;;11.11;70.40;98631.66;4993964;28;19914;-87
2024/02/13 04:49:53;;;;;;;;;;;;;;;11.16;70.33;98637.19;4976413;28;20292;-86
2024/02/13 04:52:18;;;;;;;;;;;;;;;11.17;70.57;98633.53;4994028;28;19968;-86
2024/02/13 04:54:44;;;;;;;;;;;;;;;11.21;70.80;98639.22;4993639;28;19918;-87
2024/02/13 04:57:10;;;;;;;;;;;;;;;11.21;70.47;98636.56;4993597;28;19914;-87
2024/02/13 04:59:47;;;;;;;;;;;;;;;11.18;69.95;98635.16;4976236;28;19972;-87
2024/02/13 05:02:13;;;;;;;;;;;;;;;11.16;69.34;98631.09;4993888;28;20330;-87
2024/02/13 05:07:30;;;;;;;;;;;;;;;11.02;70.73;98640.81;4963466;28;20291;-87
2024/02/13 05:09:57;;;;;;;;;;;;;;;10.94;71.73;98644.47;4975807;28;19922;-86
2024/02/13 05:12:22;;;;;;;;;;;;;;;10.96;70.69;98647.72;4993477;28;20004;-87
2024/02/13 05:14:47;;;;;;;;;;;;;;;10.97;71.40;98649.34;4993302;28;20107;-87
2024/02/13 05:17:13;;;;;;;;;;;;;;;11.01;70.89;98649.75;4993159;28;20010;-86
2024/02/13 05:19:39;;;;;;;;;;;;;;;11.03;71.08;98653.00;4975907;28;19921;-87
2024/02/13 05:22:04;;;;;;;;;;;;;;;11.03;70.34;98658.28;4993405;28;20470;-87
2024/02/13 05:24:29;;;;;;;;;;;;;;;11.07;70.78;98654.22;4975668;28;20302;-87
2024/02/13 05:26:54;;;;;;;;;;;;;;;11.12;70.03;98667.63;4992950;28;20380;-87
2024/02/13 05:29:20;;;;;;;;;;;;;;;11.13;70.72;98679.81;4993185;28;19914;-87
2024/02/13 05:31:45;;;;;;;;;;;;;;;11.14;70.35;98670.88;4975797;28;19914;-87
2024/02/13 05:34:10;;;;;;;;;;;;;;;11.08;70.12;98674.34;4993128;28;19945;-87
2024/02/13 05:36:35;;;;;;;;;;;;;;;11.06;70.64;98671.09;4975358;28;20462;-87
2024/02/13 05:39:02;;;;;;;;;;;;;;;10.99;70.82;98675.56;4992955;28;19914;-86
2024/02/13 05:41:28;;;;;;;;;;;;;;;10.98;71.26;98680.03;4993043;28;19920;-87
2024/02/13 05:43:53;;;;;;;;;;;;;;;11.01;71.34;98676.97;4993195;28;20275;-87
2024/02/13 05:46:18;;;;;;;;;;;;;;;11.07;70.69;98680.63;4993034;28;19914;-86
2024/02/13 05:48:44;;;;;;;;;;;;;;;11.11;70.86;98687.16;4992970;28;20060;-86
2024/02/13 05:51:11;;;;;;;;;;;;;;;11.15;70.22;98680.47;4975350;28;19914;-87
2024/02/13 05:53:36;;;;;;;;;;;;;;;11.15;70.39;98688.41;4992623;28;19914;-86
2024/02/13 05:56:02;;;;;;;;;;;;;;;11.14;71.23;98695.47;4992757;28;20005;-87
2024/02/13 05:58:28;;;;;;;;;;;;;;;11.17;70.07;98699.56;4992099;28;19917;-87
2024/02/13 06:00:54;;;;;;;;;;;;;;;11.18;70.24;98701.19;4992540;28;19914;-87
2024/02/13 06:03:19;;;;;;;;;;;;;;;11.21;70.60;98716.66;4975009;28;19972;-86
2024/02/13 06:05:44;;;;;;;;;;;;;;;11.26;70.95;98710.75;4992525;28;20359;-87
2024/02/13 06:08:10;;;;;;;;;;;;;;;11.31;70.03;98711.78;4974919;28;19913;-86
2024/02/13 06:10:36;;;;;;;;;;;;;;;11.37;70.00;98710.97;4974705;28;20399;-87
2024/02/13 06:13:01;;;;;;;;;;;;;;;11.41;69.77;98725.41;4992384;28;19918;-86
2024/02/13 06:15:26;;;;;;;;;;;;;;;11.49;70.02;98732.31;4992053;28;19918;-87
2024/02/13 06:17:52;;;;;;;;;;;;;;;11.53;69.69;98730.88;4975347;28;19925;-86
2024/02/13 06:20:18;;;;;;;;;;;;;;;11.59;69.37;98737.19;4974621;28;19914;-87
2024/02/13 06:22:44;;;;;;;;;;;;;;;11.63;69.27;98741.06;4992065;28;19953;-86
2024/02/13 06:25:11;;;;;;;;;;;;;;;11.67;69.20;98740.44;4974719;28;19960;-86
2024/02/13 06:27:36;;;;;;;;;;;;;;;11.72;69.19;98734.53;4973764;28;19921;-87
2024/02/13 06:30:02;;;;;;;;;;;;;;;11.72;68.76;98739.81;4974315;28;19921;-86
2024/02/13 06:32:27;;;;;;;;;;;;;;;11.74;69.13;98735.97;4992210;28;19913;-87
2024/02/13 06:34:53;;;;;;;;;;;;;;;11.77;69.12;98735.56;4992164;28;19925;-87
2024/02/13 06:37:19;;;;;;;;;;;;;;;11.79;68.33;98738.00;4992093;28;20023;-86
2024/02/13 06:39:44;;;;;;;;;;;;;;;11.79;69.09;98738.00;4974916;28;19913;-87
2024/02/13 06:42:11;;;;;;;;;;;;;;;11.79;68.59;98735.38;4992420;28;19920;-86
2024/02/13 06:44:37;;;;;;;;;;;;;;;11.80;68.70;98741.47;4974591;28;20014;-86
2024/02/13 06:47:06;;;;;;;;;;;;;;;11.83;68.56;98739.22;4974503;28;19925;-86
2024/02/13 06:49:32;;;;;;;;;;;;;;;11.82;68.69;98732.31;4992080;28;20377;-86
2024/02/13 06:51:58;;;;;;;;;;;;;;;11.80;68.23;98737.00;4991788;28;19918;-86
2024/02/13 06:54:24;;;;;;;;;;;;;;;11.77;68.68;98747.94;4991721;28;19936;-86
2024/02/13 06:56:49;;;;;;;;;;;;;;;11.78;68.24;98742.50;4974161;28;20017;-86
2024/02/13 06:59:15;;;;;;;;;;;;;;;11.76;68.15;98747.16;4974220;28;19914;-86
2024/02/13 07:01:40;;;;;;;;;;;;;;;11.73;68.34;98749.38;4974002;28;19918;-87
2024/02/13 07:04:06;;;;;;;;;;;;;;;11.72;67.33;98751.22;4974043;28;19918;-87
2024/02/13 07:06:32;;;;;;;;;;;;;;;11.76;67.21;98755.06;4974084;28;19968;-86
2024/02/13 07:08:57;;;;;;;;;;;;;;;11.77;67.44;98754.09;4994090;28;19969;-88
2024/02/13 07:11:22;;;;;;;;;;;;;;;11.80;67.32;98754.69;4990269;28;20008;-87
2024/02/13 07:13:48;;;;;;;;;;;;;;;11.82;66.25;98750.81;4997143;28;20394;-87
2024/02/13 07:16:13;;;;;;;;;;;;;;;11.88;66.57;98750.00;5014768;28;19926;-88
2024/02/13 07:18:39;;;;;;;;;;;;;;;11.94;65.98;98753.69;4993476;28;19918;-88
2024/02/13 07:21:06;;;;;;;;;;;;;;;11.99;65.74;98756.53;4996130;28;20383;-87
2024/02/13 07:23:32;;;;;;;;;;;;;;;12.02;65.73;98775.44;5010094;28;19929;-85
2024/02/13 07:25:58;;;;;;;;;;;;;;;12.05;65.60;98750.41;5000170;28;19917;-86
2024/02/13 07:28:23;;;;;;;;;;;;;;;12.09;64.96;98762.22;5007484;28;19917;-87
2024/02/13 07:30:48;;;;;;;;;;;;;;;12.05;63.60;98763.66;4979829;28;19917;-87
2024/02/13 07:33:14;;;;;;;;;;;;;;;12.02;64.25;98761.41;4997821;28;19924;-87
2024/02/13 07:35:39;;;;;;;;;;;;;;;12.08;65.02;98763.22;4987338;28;20413;-87
2024/02/13 07:38:04;;;;;;;;;;;;;;;12.13;64.64;98759.97;4978042;28;19918;-87
2024/02/13 07:40:30;;;;;;;;;;;;;;;12.14;64.84;98767.69;5003755;28;19975;-86
2024/02/13 07:42:55;;;;;;;;;;;;;;;12.11;63.83;98762.81;4996810;28;19924;-87
2024/02/13 07:45:21;;;;;;;;;;;;;;;12.15;63.82;98763.22;5006240;28;19917;-87
2024/02/13 07:47:46;;;;;;;;;;;;;;;12.09;63.02;98767.50;4990795;28;19971;-87
2024/02/13 07:50:14;;;;;;;;;;;;;;;12.12;61.20;98760.97;4977747;28;20225;-86
2024/02/13 07:52:39;;;;;;;;;;;;;;;12.15;62.23;98764.03;4995160;28;19917;-87
2024/02/13 07:55:05;;;;;;;;;;;;;;;12.20;62.01;98768.69;4977318;28;20418;-87
2024/02/13 07:57:32;;;;;;;;;;;;;;;12.25;61.10;98760.94;4977532;28;20291;-88
2024/02/13 07:59:58;;;;;;;;;;;;;;;12.29;62.19;98767.44;4996888;28;20579;-87
2024/02/13 08:02:25;;;;;;;;;;;;;;;12.23;61.10;98768.28;4996444;28;20406;-86
2024/02/13 08:04:51;;;;;;;;;;;;;;;12.16;60.06;98767.50;4995086;28;19918;-87
2024/02/13 08:07:16;;;;;;;;;;;;;;;12.20;58.91;98760.75;4976912;28;19917;-87
2024/02/13 08:09:41;;;;;;;;;;;;;;;12.23;60.45;98770.94;4994253;28;20292;-86
2024/02/13 08:12:08;;;;;;;;;;;;;;;12.27;59.64;98774.78;4993351;28;20025;-87
2024/02/13 08:14:33;;;;;;;;;;;;;;;12.24;59.90;98765.44;4975645;28;19922;-87
2024/02/13 08:16:59;;;;;;;;;;;;;;;12.34;60.27;98771.09;4993110;28;19976;-86
2024/02/13 08:19:26;;;;;;;;;;;;;;;12.37;59.15;98767.22;4965815;28;19913;-87
2024/02/13 08:21:51;;;;;;;;;;;;;;;12.36;59.40;98765.59;4975586;28;19924;-87
2024/02/13 08:24:17;;;;;;;;;;;;;;;12.36;59.62;98757.66;4977029;28;19913;-87
2024/02/13 08:26:43;;;;;;;;;;;;;;;12.43;60.33;98761.09;4994794;28;19971;-86
2024/02/13 08:29:09;;;;;;;;;;;;;;;12.44;60.25;98762.72;4977048;28;19918;-87
2024/02/13 08:31:34;;;;;;;;;;;;;;;12.37;58.99;98760.09;4976747;28;19968;-87
2024/02/13 08:34:01;;;;;;;;;;;;;;;12.39;59.18;98762.53;4977157;28;19918;-87
2024/02/13 08:36:28;;;;;;;;;;;;;;;12.39;57.79;98751.94;4993276;28;19917;-86
2024/02/13 08:38:53;;;;;;;;;;;;;;;12.52;58.44;98774.91;4976307;28;19914;-86
2024/02/13 08:41:19;;;;;;;;;;;;;;;12.52;57.39;98767.78;4994057;28;20314;-86
2024/02/13 08:43:45;;;;;;;;;;;;;;;12.55;57.51;98774.50;4975865;28;19942;-88
2024/02/13 08:46:10;;;;;;;;;;;;;;;12.62;56.41;98759.41;4967521;28;19977;-86
2024/02/13 08:48:37;;;;;;;;;;;;;;;12.71;57.48;98763.47;4962930;28;20370;-86
2024/02/13 08:51:02;;;;;;;;;;;;;;;12.75;56.26;98764.66;4974680;28;19917;-86
2024/02/13 08:53:27;;;;;;;;;;;;;;;12.88;57.10;98769.91;4976560;28;19974;-85
2024/02/13 08:55:53;;;;;;;;;;;;;;;12.94;54.86;98776.19;4966962;28;20395;-85
2024/02/13 08:58:18;;;;;;;;;;;;;;;13.02;54.59;98778.59;4977122;28;20418;-86
2024/02/13 09:00:43;;;;;;;;;;;;;;;13.04;54.79;98780.00;4994378;28;20379;-86
2024/02/13 09:03:09;;;;;;;;;;;;;;;13.10;54.88;98788.94;4994222;28;19959;-85
2024/02/13 09:05:34;;;;;;;;;;;;;;;13.21;54.40;98784.84;4993709;28;19918;-86
2024/02/13 09:08:00;;;;;;;;;;;;;;;13.33;55.46;98791.06;4988513;28;19944;-86
2024/02/13 09:10:25;;;;;;;;;;;;;;;13.25;53.35;98792.13;5029418;28;19922;-85
2024/02/13 09:12:50;;;;;;;;;;;;;;;13.22;52.92;98795.22;5013744;28;19924;-87
2024/02/13 09:15:16;;;;;;;;;;;;;;;13.12;52.25;98792.19;5012243;28;19921;-85
2024/02/13 09:17:41;;;;;;;;;;;;;;;13.24;53.08;98795.00;5002767;28;20477;-86
2024/02/13 09:20:06;;;;;;;;;;;;;;;13.27;52.42;98794.56;5003811;28;20319;-86
2024/02/13 09:22:32;;;;;;;;;;;;;;;13.28;53.66;98797.03;5002894;28;19948;-85
2024/02/13 09:24:57;;;;;;;;;;;;;;;13.30;52.46;98800.28;5005367;28;19914;-85
2024/02/13 09:27:22;;;;;;;;;;;;;;;13.26;52.23;98785.00;5013149;28;20422;-85
2024/02/13 09:29:48;;;;;;;;;;;;;;;13.32;53.86;98792.09;4998978;28;19937;-85
2024/02/13 09:32:14;;;;;;;;;;;;;;;13.42;53.53;98802.25;5011523;28;19918;-85
2024/02/13 09:34:40;;;;;;;;;;;;;;;13.52;53.28;98797.28;5007062;28;20947;-86
2024/02/13 09:37:06;;;;;;;;;;;;;;;13.57;52.44;98797.47;5012242;28;19925;-85
2024/02/13 09:39:32;;;;;;;;;;;;;;;13.69;50.44;98795.75;5010231;28;19913;-86
2024/02/13 09:41:58;;;;;;;;;;;;;;;13.74;52.25;98793.25;5007907;28;20331;-85
2024/02/13 09:44:26;;;;;;;;;;;;;;;13.81;51.71;98793.19;4993781;28;20000;-86
2024/02/13 09:46:54;;;;;;;;;;;;;;;13.74;50.79;98785.28;5012178;28;19921;-85
2024/02/13 09:49:21;;;;;;;;;;;;;;;13.82;51.22;98787.66;5007561;28;19914;-87
2024/02/13 09:51:48;;;;;;;;;;;;;;;13.92;52.02;98801.25;4991599;28;20388;-86
2024/02/13 09:54:15;;;;;;;;;;;;;;;13.94;50.42;98790.41;4991647;28;19964;-85
2024/02/13 09:56:40;;;;;;;;;;;;;;;13.98;52.13;98791.63;5008594;28;19921;-86
2024/02/13 09:59:06;;;;;;;;;;;;;;;14.07;50.95;98778.88;5011313;28;19921;-85
2024/02/13 10:01:32;;;;;;;;;;;;;;;14.16;50.53;98785.53;5005298;28;19972;-86
2024/02/13 10:03:58;;;;;;;;;;;;;;;14.26;48.74;98780.53;5011207;28;19917;-86
2024/02/13 10:06:24;;;;;;;;;;;;;;;14.35;50.32;98781.88;5011971;28;19998;-85
2024/02/13 10:08:53;;;;;;;;;;;;;;;14.47;50.17;98784.63;5011824;28;20438;-85
2024/02/13 10:11:28;;;;;;;;;;;;;;;14.55;48.30;98785.16;4986618;28;19921;-86
2024/02/13 10:13:53;;;;;;;;;;;;;;;14.60;46.51;98779.97;4991541;28;19917;-85
2024/02/13 10:16:20;;;;;;;;;;;;;;;14.69;48.19;98782.34;4982415;28;19971;-86
2024/02/13 10:18:49;;;;;;;;;;;;;;;14.70;48.58;98783.97;4984662;28;20012;-86
2024/02/13 10:21:15;;;;;;;;;;;;;;;14.69;47.14;98777.03;4981920;28;19918;-86
2024/02/13 10:23:40;;;;;;;;;;;;;;;14.87;48.87;98771.72;4982038;28;19925;-86
2024/02/13 10:26:06;;;;;;;;;;;;;;;15.01;47.47;98770.50;5003283;28;19926;-85
2024/02/13 10:28:33;;;;;;;;;;;;;;;15.10;47.00;98773.66;4992683;28;19918;-85
2024/02/13 10:30:59;;;;;;;;;;;;;;;15.11;46.81;98801.84;4983646;28;19917;-84
2024/02/13 10:33:24;;;;;;;;;;;;;;;14.99;46.45;98769.09;5009095;28;20425;-85
2024/02/13 10:35:54;;;;;;;;;;;;;;;15.00;45.98;98773.38;4993360;28;19968;-85
2024/02/13 10:38:23;;;;;;;;;;;;;;;14.98;46.66;98764.81;4978316;28;20011;-86
2024/02/13 10:40:51;;;;;;;;;;;;;;;14.85;46.76;98763.13;5008348;28;19925;-86
2024/02/13 10:43:16;;;;;;;;;;;;;;;14.82;46.55;98752.94;4993117;28;19971;-85
2024/02/13 10:45:42;;;;;;;;;;;;;;;14.76;47.62;98757.31;5010461;28;19918;-84
2024/02/13 10:48:08;;;;;;;;;;;;;;;14.75;45.89;98745.06;4993370;28;20319;-85
2024/02/13 10:50:34;;;;;;;;;;;;;;;14.89;45.75;98743.88;4992113;28;19917;-85
2024/02/13 10:53:01;;;;;;;;;;;;;;;14.81;46.72;98746.81;5009664;28;20204;-85
2024/02/13 10:55:26;;;;;;;;;;;;;;;14.99;46.25;98747.84;5014206;28;20430;-84
2024/02/13 10:57:52;;;;;;;;;;;;;;;15.10;44.08;98734.59;5014721;28;19917;-85
2024/02/13 11:00:20;;;;;;;;;;;;;;;15.16;44.26;98731.00;5004323;28;19956;-85
2024/02/13 11:02:47;;;;;;;;;;;;;;;15.06;44.14;98729.94;5007480;28;19925;-85
2024/02/13 11:05:14;;;;;;;;;;;;;;;15.14;45.57;98734.94;5011184;28;19917;-86
2024/02/13 11:07:40;;;;;;;;;;;;;;;15.27;43.54;98721.44;5012961;28;19924;-86
2024/02/13 11:10:08;;;;;;;;;;;;;;;15.28;44.24;98739.03;5011159;28;19921;-86
2024/02/13 11:12:34;;;;;;;;;;;;;;;15.17;41.84;98729.97;4993201;28;19926;-86
2024/02/13 11:15:09;;;;;;;;;;;;;;;15.15;42.92;98728.59;5008640;28;20097;-86
2024/02/13 11:17:42;;;;;;;;;;;;;;;15.31;44.43;98717.28;5010054;28;19918;-85
2024/02/13 11:20:09;;;;;;;;;;;;;;;15.38;44.38;98711.84;4985317;28;19925;-86
2024/02/13 11:22:42;;;;;;;;;;;;;;;15.46;42.40;98719.50;4988970;28;20016;-86
2024/02/13 11:25:11;;;;;;;;;;;;;;;15.54;42.89;98706.69;4982444;28;19918;-85
2024/02/13 11:27:36;;;;;;;;;;;;;;;15.73;43.02;98706.63;4992410;28;19948;-85
2024/02/13 11:30:06;;;;;;;;;;;;;;;15.70;41.14;98699.09;5014176;28;20461;-85
2024/02/13 11:32:36;;;;;;;;;;;;;;;15.75;43.15;98692.03;5014120;28;19918;-85
2024/02/13 11:35:05;;;;;;;;;;;;;;;15.84;43.32;98695.97;5006954;28;20322;-85
2024/02/13 11:37:34;;;;;;;;;;;;;;;15.86;41.17;98693.88;4986917;28;19917;-85
2024/02/13 11:40:04;;;;;;;;;;;;;;;15.75;41.73;98680.59;4990839;28;19926;-86
2024/02/13 11:42:33;;;;;;;;;;;;;;;15.74;41.47;98690.41;5005473;28;19926;-85
2024/02/13 11:45:00;;;;;;;;;;;;;;;15.68;42.70;98693.19;4992343;28;19924;-85
2024/02/13 11:47:25;;;;;;;;;;;;;;;15.59;41.66;98687.38;4995162;28;19967;-84
2024/02/13 11:49:50;;;;;;;;;;;;;;;15.45;41.36;98672.66;5007343;28;19922;-84
2024/02/13 11:52:16;;;;;;;;;;;;;;;15.42;40.09;98670.47;4991395;28;19928;-85
2024/02/13 11:54:43;;;;;;;;;;;;;;;15.41;39.58;98682.94;4991336;28;19929;-83
2024/02/13 11:57:12;;;;;;;;;;;;;;;15.36;41.27;98687.34;5012516;28;19917;-84
2024/02/13 11:59:37;;;;;;;;;;;;;;;15.34;40.85;98684.91;4988539;28;19939;-85
2024/02/13 12:02:03;;;;;;;;;;;;;;;15.24;40.02;98677.50;5001109;28;20375;-84
2024/02/13 12:04:29;;;;;;;;;;;;;;;15.29;41.80;98674.16;5012657;28;19913;-85
2024/02/13 12:06:55;;;;;;;;;;;;;;;15.32;41.00;98673.69;4985849;28;19945;-83
2024/02/13 12:09:21;;;;;;;;;;;;;;;15.32;41.17;98665.72;5011552;28;19929;-84
2024/02/13 12:11:46;;;;;;;;;;;;;;;15.39;42.25;98663.75;4996844;28;19949;-84
2024/02/13 12:14:13;;;;;;;;;;;;;;;15.37;41.53;98654.38;5005000;28;19921;-84
2024/02/13 12:16:38;;;;;;;;;;;;;;;15.32;41.53;98657.72;5009057;28;19976;-84
2024/02/13 12:19:08;;;;;;;;;;;;;;;15.37;42.35;98659.69;5003990;28;19921;-84
2024/02/13 12:21:33;;;;;;;;;;;;;;;15.41;41.81;98676.81;4992731;28;19917;-84
2024/02/13 12:24:01;;;;;;;;;;;;;;;15.39;41.34;98670.91;4994215;28;20346;-84
2024/02/13 12:26:28;;;;;;;;;;;;;;;15.32;41.38;98660.41;5013700;28;20337;-85
2024/02/13 12:28:59;;;;;;;;;;;;;;;15.31;40.98;98663.28;4995114;28;19925;-84
2024/02/13 12:31:27;;;;;;;;;;;;;;;15.31;42.62;98679.25;4994480;28;19951;-85
2024/02/13 12:34:05;;;;;;;;;;;;;;;15.16;41.30;98667.19;4994196;28;20409;-84
2024/02/13 12:36:31;;;;;;;;;;;;;;;15.16;41.54;98677.84;5000971;28;19957;-84
2024/02/13 12:39:08;;;;;;;;;;;;;;;15.17;42.35;98670.66;4995423;28;19921;-85
2024/02/13 12:41:35;;;;;;;;;;;;;;;15.17;42.53;98681.31;5005681;28;19925;-85
2024/02/13 12:44:00;;;;;;;;;;;;;;;15.02;41.47;98688.91;5005675;28;19918;-85